Terminal Aerodrome Forecast
Issued by NWS

Home | Current Version | Previous Version | Text Only | Print | Product List | Glossary On
Versions: 1 2 3 4 5 6 7 8 9 10 11 12 13
000
FTPA31 PHFO 310541
TAFHOG
TAF
PHOG 310541Z 3106/0106 05013G21KT P6SM FEW030 FEW050
     FM310800 05011KT P6SM SCT030 SCT040
     FM312000 05015G23KT P6SM FEW030 SCT050
      AMD LTD TO VIS AND WIND 3109/3116=

USA.gov is the U.S. government's official web portal to all federal, state and local government web resources and services.